Terminal Aerodrome Forecast
Issued by NWS

Home | Current Version | Previous Version | Text Only | Print | Product List | Glossary On
Versions: 1 2 3 4 5 6 7 8 9 10 11 12 13 14 15 16 17 18 19 20 21 22 23 24 25 26 27 28 29 30 31 32 33 34 35 36
000
FTAK31 PANC 041215 AAA
TAFACD
TAF AMD
PACD 041215Z 0412/0512 23007KT P6SM VCSH FEW010 SCT025 BKN035
     FM050000 36006KT P6SM VCSH SCT025 BKN035
     FM050600 04009KT P6SM VCSH SCT015 BKN035
      AMD NOT SKED=

USA.gov is the U.S. government's official web portal to all federal, state and local government web resources and services.